sensor_id;sensor_type;location;lat;lon;timestamp;pressure;altitude;pressure_sealevel;temperature;humidity
36598;BME280;22607;49.550;11.940;2022-09-21T00:00:28;97663.84;;;5.63;100.00
36598;BME280;22607;49.550;11.940;2022-09-21T00:02:56;97659.22;;;5.67;100.00
36598;BME280;22607;49.550;11.940;2022-09-21T00:05:23;97665.16;;;5.69;100.00
36598;BME280;22607;49.550;11.940;2022-09-21T00:07:50;97670.25;;;5.48;100.00
36598;BME280;22607;49.550;11.940;2022-09-21T00:10:18;97662.69;;;5.56;100.00
36598;BME280;22607;49.550;11.940;2022-09-21T00:12:47;97663.75;;;5.54;100.00
36598;BME280;22607;49.550;11.940;2022-09-21T00:15:15;97667.41;;;5.39;100.00
36598;BME280;22607;49.550;11.940;2022-09-21T00:17:45;97664.09;;;5.49;100.00
36598;BME280;22607;49.550;11.940;2022-09-21T00:20:15;97657.59;;;5.55;100.00
36598;BME280;22607;49.550;11.940;2022-09-21T00:22:42;97658.28;;;5.57;100.00
36598;BME280;22607;49.550;11.940;2022-09-21T00:25:09;97656.88;;;5.52;100.00
36598;BME280;22607;49.550;11.940;2022-09-21T00:27:36;97657.47;;;5.33;100.00
36598;BME280;22607;49.550;11.940;2022-09-21T00:30:04;97659.25;;;5.44;100.00
36598;BME280;22607;49.550;11.940;2022-09-21T00:32:33;97662.78;;;5.43;100.00
36598;BME280;22607;49.550;11.940;2022-09-21T00:35:01;97661.16;;;5.54;100.00
36598;BME280;22607;49.550;11.940;2022-09-21T00:37:28;97659.50;;;5.41;100.00
36598;BME280;22607;49.550;11.940;2022-09-21T00:39:56;97658.78;;;5.16;100.00
36598;BME280;22607;49.550;11.940;2022-09-21T00:42:24;97659.03;;;5.36;100.00
36598;BME280;22607;49.550;11.940;2022-09-21T00:44:51;97657.84;;;5.40;100.00
36598;BME280;22607;49.550;11.940;2022-09-21T00:47:33;97661.38;;;5.28;100.00
36598;BME280;22607;49.550;11.940;2022-09-21T00:50:05;97665.75;;;5.38;100.00
36598;BME280;22607;49.550;11.940;2022-09-21T00:52:33;97672.97;;;5.12;100.00
36598;BME280;22607;49.550;11.940;2022-09-21T00:55:09;97659.00;;;5.24;100.00
36598;BME280;22607;49.550;11.940;2022-09-21T00:57:38;97670.25;;;5.48;100.00
36598;BME280;22607;49.550;11.940;2022-09-21T01:00:07;97664.91;;;5.61;100.00
36598;BME280;22607;49.550;11.940;2022-09-21T01:02:35;97668.25;;;5.63;100.00
36598;BME280;22607;49.550;11.940;2022-09-21T01:05:04;97667.19;;;5.65;100.00
36598;BME280;22607;49.550;11.940;2022-09-21T01:07:33;97673.09;;;5.56;100.00
36598;BME280;22607;49.550;11.940;2022-09-21T01:10:11;97674.53;;;5.49;100.00
36598;BME280;22607;49.550;11.940;2022-09-21T01:13:03;97670.41;;;5.35;100.00
36598;BME280;22607;49.550;11.940;2022-09-21T01:16:11;97669.19;;;5.28;100.00
36598;BME280;22607;49.550;11.940;2022-09-21T01:18:58;97673.81;;;5.24;100.00
36598;BME280;22607;49.550;11.940;2022-09-21T01:21:33;97679.13;;;5.34;100.00
36598;BME280;22607;49.550;11.940;2022-09-21T01:24:42;97679.13;;;5.22;100.00
36598;BME280;22607;49.550;11.940;2022-09-21T01:27:25;97671.31;;;5.22;100.00
36598;BME280;22607;49.550;11.940;2022-09-21T01:30:00;97674.88;;;5.21;100.00
36598;BME280;22607;49.550;11.940;2022-09-21T01:32:39;97680.53;;;5.15;100.00
36598;BME280;22607;49.550;11.940;2022-09-21T01:37:58;97678.66;;;5.17;100.00
36598;BME280;22607;49.550;11.940;2022-09-21T01:40:38;97688.47;;;5.02;100.00
36598;BME280;22607;49.550;11.940;2022-09-21T01:43:11;97681.94;;;4.96;100.00
36598;BME280;22607;49.550;11.940;2022-09-21T01:45:45;97681.50;;;5.03;100.00
36598;BME280;22607;49.550;11.940;2022-09-21T01:48:14;97686.47;;;5.17;100.00
36598;BME280;22607;49.550;11.940;2022-09-21T01:50:46;97683.63;;;5.09;100.00
36598;BME280;22607;49.550;11.940;2022-09-21T01:53:35;97686.44;;;5.06;100.00
36598;BME280;22607;49.550;11.940;2022-09-21T01:56:06;97679.69;;;5.03;100.00
36598;BME280;22607;49.550;11.940;2022-09-21T01:58:40;97687.84;;;4.87;100.00
36598;BME280;22607;49.550;11.940;2022-09-21T02:01:11;97688.47;;;4.91;100.00
36598;BME280;22607;49.550;11.940;2022-09-21T02:03:49;97690.19;;;4.79;100.00
36598;BME280;22607;49.550;11.940;2022-09-21T02:06:17;97692.34;;;4.96;100.00
36598;BME280;22607;49.550;11.940;2022-09-21T02:08:45;97686.16;;;4.75;100.00
36598;BME280;22607;49.550;11.940;2022-09-21T02:11:12;97689.16;;;4.93;100.00
36598;BME280;22607;49.550;11.940;2022-09-21T02:13:42;97692.13;;;4.99;100.00
36598;BME280;22607;49.550;11.940;2022-09-21T02:19:23;97691.38;;;4.86;100.00
36598;BME280;22607;49.550;11.940;2022-09-21T02:27:01;97682.72;;;4.74;100.00
36598;BME280;22607;49.550;11.940;2022-09-21T02:29:37;97690.63;;;4.72;100.00
36598;BME280;22607;49.550;11.940;2022-09-21T02:34:44;97688.59;;;4.53;100.00
36598;BME280;22607;49.550;11.940;2022-09-21T02:39:43;97688.31;;;4.45;100.00
36598;BME280;22607;49.550;11.940;2022-09-21T02:42:11;97691.28;;;4.52;100.00
36598;BME280;22607;49.550;11.940;2022-09-21T02:44:45;97690.13;;;4.56;100.00
36598;BME280;22607;49.550;11.940;2022-09-21T02:47:21;97689.88;;;4.59;100.00
36598;BME280;22607;49.550;11.940;2022-09-21T02:49:53;97696.44;;;4.40;100.00
36598;BME280;22607;49.550;11.940;2022-09-21T02:52:21;97698.38;;;4.50;100.00
36598;BME280;22607;49.550;11.940;2022-09-21T02:54:50;97692.59;;;4.57;100.00
36598;BME280;22607;49.550;11.940;2022-09-21T02:57:18;97691.69;;;4.34;100.00
36598;BME280;22607;49.550;11.940;2022-09-21T02:59:46;97696.91;;;4.34;100.00
36598;BME280;22607;49.550;11.940;2022-09-21T03:02:12;97695.56;;;4.53;100.00
36598;BME280;22607;49.550;11.940;2022-09-21T03:04:40;97699.69;;;4.55;100.00
36598;BME280;22607;49.550;11.940;2022-09-21T03:07:08;97698.81;;;4.43;100.00
36598;BME280;22607;49.550;11.940;2022-09-21T03:09:34;97700.16;;;4.49;100.00
36598;BME280;22607;49.550;11.940;2022-09-21T03:12:01;97705.00;;;4.54;100.00
36598;BME280;22607;49.550;11.940;2022-09-21T03:14:28;97704.00;;;4.32;100.00
36598;BME280;22607;49.550;11.940;2022-09-21T03:16:54;97709.34;;;4.17;100.00
36598;BME280;22607;49.550;11.940;2022-09-21T03:19:21;97710.22;;;4.29;100.00
36598;BME280;22607;49.550;11.940;2022-09-21T03:21:47;97718.63;;;4.09;100.00
36598;BME280;22607;49.550;11.940;2022-09-21T03:24:14;97721.34;;;4.07;100.00
36598;BME280;22607;49.550;11.940;2022-09-21T03:27:00;97718.38;;;4.25;100.00
36598;BME280;22607;49.550;11.940;2022-09-21T03:29:27;97721.47;;;4.30;100.00
36598;BME280;22607;49.550;11.940;2022-09-21T03:31:53;97718.38;;;4.25;100.00
36598;BME280;22607;49.550;11.940;2022-09-21T03:34:21;97717.13;;;4.17;100.00
36598;BME280;22607;49.550;11.940;2022-09-21T03:36:48;97726.47;;;4.20;100.00
36598;BME280;22607;49.550;11.940;2022-09-21T03:39:14;97726.53;;;4.07;100.00
36598;BME280;22607;49.550;11.940;2022-09-21T03:41:41;97727.44;;;4.19;100.00
36598;BME280;22607;49.550;11.940;2022-09-21T03:44:07;97726.16;;;4.25;100.00
36598;BME280;22607;49.550;11.940;2022-09-21T03:46:34;97728.75;;;4.25;100.00
36598;BME280;22607;49.550;11.940;2022-09-21T03:49:00;97721.84;;;4.12;100.00
36598;BME280;22607;49.550;11.940;2022-09-21T03:51:28;97729.88;;;4.09;100.00
36598;BME280;22607;49.550;11.940;2022-09-21T03:53:58;97725.16;;;4.14;100.00
36598;BME280;22607;49.550;11.940;2022-09-21T03:56:24;97725.00;;;4.29;100.00
36598;BME280;22607;49.550;11.940;2022-09-21T03:58:50;97728.16;;;4.21;100.00
36598;BME280;22607;49.550;11.940;2022-09-21T04:01:17;97728.81;;;4.12;100.00
36598;BME280;22607;49.550;11.940;2022-09-21T04:03:43;97736.78;;;3.84;100.00
36598;BME280;22607;49.550;11.940;2022-09-21T04:06:11;97731.38;;;3.87;100.00
36598;BME280;22607;49.550;11.940;2022-09-21T04:08:38;97737.44;;;4.12;100.00
36598;BME280;22607;49.550;11.940;2022-09-21T04:11:17;97730.06;;;4.06;100.00
36598;BME280;22607;49.550;11.940;2022-09-21T04:13:43;97732.38;;;3.98;100.00
36598;BME280;22607;49.550;11.940;2022-09-21T04:16:14;97737.53;;;4.11;100.00
36598;BME280;22607;49.550;11.940;2022-09-21T04:18:41;97738.81;;;4.05;100.00
36598;BME280;22607;49.550;11.940;2022-09-21T04:21:07;97734.69;;;3.89;100.00
36598;BME280;22607;49.550;11.940;2022-09-21T04:23:34;97736.97;;;3.94;100.00
36598;BME280;22607;49.550;11.940;2022-09-21T04:26:01;97729.13;;;4.07;100.00
36598;BME280;22607;49.550;11.940;2022-09-21T04:28:28;97733.22;;;3.85;100.00
36598;BME280;22607;49.550;11.940;2022-09-21T04:30:54;97744.09;;;3.66;100.00
36598;BME280;22607;49.550;11.940;2022-09-21T04:33:21;97733.03;;;3.88;100.00
36598;BME280;22607;49.550;11.940;2022-09-21T04:35:55;97727.59;;;4.04;100.00
36598;BME280;22607;49.550;11.940;2022-09-21T04:38:22;97744.97;;;4.04;100.00
36598;BME280;22607;49.550;11.940;2022-09-21T04:40:55;97741.28;;;4.19;100.00
36598;BME280;22607;49.550;11.940;2022-09-21T04:43:21;97742.97;;;4.07;100.00
36598;BME280;22607;49.550;11.940;2022-09-21T04:45:48;97745.38;;;3.98;100.00
36598;BME280;22607;49.550;11.940;2022-09-21T04:48:15;97743.19;;;4.04;100.00
36598;BME280;22607;49.550;11.940;2022-09-21T04:50:43;97752.03;;;4.02;100.00
36598;BME280;22607;49.550;11.940;2022-09-21T04:53:09;97754.63;;;4.02;100.00
36598;BME280;22607;49.550;11.940;2022-09-21T04:55:36;97764.00;;;3.91;100.00
36598;BME280;22607;49.550;11.940;2022-09-21T04:58:02;97756.94;;;3.93;100.00
36598;BME280;22607;49.550;11.940;2022-09-21T05:00:29;97760.03;;;3.99;100.00
36598;BME280;22607;49.550;11.940;2022-09-21T05:02:55;97766.13;;;4.11;100.00
36598;BME280;22607;49.550;11.940;2022-09-21T05:05:22;97761.16;;;4.07;100.00
36598;BME280;22607;49.550;11.940;2022-09-21T05:07:48;97765.97;;;4.01;100.00
36598;BME280;22607;49.550;11.940;2022-09-21T05:10:15;97776.03;;;4.05;100.00
36598;BME280;22607;49.550;11.940;2022-09-21T05:12:42;97771.47;;;4.09;100.00
36598;BME280;22607;49.550;11.940;2022-09-21T05:15:09;97776.16;;;4.04;100.00
36598;BME280;22607;49.550;11.940;2022-09-21T05:17:36;97778.56;;;3.94;100.00
36598;BME280;22607;49.550;11.940;2022-09-21T05:20:03;97774.44;;;3.78;100.00
36598;BME280;22607;49.550;11.940;2022-09-21T05:22:30;97782.97;;;3.67;100.00
36598;BME280;22607;49.550;11.940;2022-09-21T05:24:56;97780.00;;;3.85;100.00
36598;BME280;22607;49.550;11.940;2022-09-21T05:27:22;97774.50;;;3.90;100.00
36598;BME280;22607;49.550;11.940;2022-09-21T05:29:49;97775.44;;;4.02;100.00
36598;BME280;22607;49.550;11.940;2022-09-21T05:34:48;97780.81;;;3.99;100.00
36598;BME280;22607;49.550;11.940;2022-09-21T05:39:57;97787.69;;;4.13;100.00
36598;BME280;22607;49.550;11.940;2022-09-21T05:42:24;97790.59;;;4.08;100.00
36598;BME280;22607;49.550;11.940;2022-09-21T05:44:51;97795.78;;;4.21;100.00
36598;BME280;22607;49.550;11.940;2022-09-21T05:49:49;97793.19;;;4.08;100.00
36598;BME280;22607;49.550;11.940;2022-09-21T05:52:27;97798.69;;;4.16;100.00
36598;BME280;22607;49.550;11.940;2022-09-21T06:00:04;97807.03;;;4.46;100.00
36598;BME280;22607;49.550;11.940;2022-09-21T06:05:17;97801.50;;;4.51;100.00
36598;BME280;22607;49.550;11.940;2022-09-21T06:07:46;97801.50;;;4.51;100.00
36598;BME280;22607;49.550;11.940;2022-09-21T06:10:12;97800.66;;;4.50;100.00
36598;BME280;22607;49.550;11.940;2022-09-21T06:12:39;97801.31;;;4.41;100.00
36598;BME280;22607;49.550;11.940;2022-09-21T06:15:06;97802.81;;;4.32;100.00
36598;BME280;22607;49.550;11.940;2022-09-21T06:17:35;97801.44;;;4.39;100.00
36598;BME280;22607;49.550;11.940;2022-09-21T06:20:01;97802.97;;;4.42;100.00
36598;BME280;22607;49.550;11.940;2022-09-21T06:22:28;97803.75;;;4.31;100.00
36598;BME280;22607;49.550;11.940;2022-09-21T06:24:56;97805.69;;;4.40;100.00
36598;BME280;22607;49.550;11.940;2022-09-21T06:27:22;97808.56;;;4.49;100.00
36598;BME280;22607;49.550;11.940;2022-09-21T06:29:49;97812.25;;;4.70;100.00
36598;BME280;22607;49.550;11.940;2022-09-21T06:32:15;97819.41;;;4.80;100.00
36598;BME280;22607;49.550;11.940;2022-09-21T06:34:42;97820.47;;;4.64;100.00
36598;BME280;22607;49.550;11.940;2022-09-21T06:37:08;97815.28;;;4.89;100.00
36598;BME280;22607;49.550;11.940;2022-09-21T06:39:35;97821.72;;;4.96;100.00
36598;BME280;22607;49.550;11.940;2022-09-21T06:42:01;97821.72;;;4.71;100.00
36598;BME280;22607;49.550;11.940;2022-09-21T06:44:28;97819.03;;;4.84;100.00
36598;BME280;22607;49.550;11.940;2022-09-21T06:46:55;97819.66;;;4.88;100.00
36598;BME280;22607;49.550;11.940;2022-09-21T06:49:23;97821.94;;;5.29;100.00
36598;BME280;22607;49.550;11.940;2022-09-21T06:51:49;97820.22;;;5.52;100.00
36598;BME280;22607;49.550;11.940;2022-09-21T06:54:16;97818.66;;;5.49;100.00
36598;BME280;22607;49.550;11.940;2022-09-21T06:56:43;97815.06;;;5.39;100.00
36598;BME280;22607;49.550;11.940;2022-09-21T06:59:10;97817.34;;;5.55;100.00
36598;BME280;22607;49.550;11.940;2022-09-21T07:01:36;97817.72;;;5.62;100.00
36598;BME280;22607;49.550;11.940;2022-09-21T07:04:03;97810.84;;;5.61;100.00
36598;BME280;22607;49.550;11.940;2022-09-21T07:06:30;97818.56;;;5.74;100.00
36598;BME280;22607;49.550;11.940;2022-09-21T07:08:56;97816.22;;;5.82;100.00
36598;BME280;22607;49.550;11.940;2022-09-21T07:11:43;97817.41;;;5.89;100.00
36598;BME280;22607;49.550;11.940;2022-09-21T07:14:10;97813.75;;;6.15;100.00
36598;BME280;22607;49.550;11.940;2022-09-21T07:16:36;97808.88;;;6.33;100.00
36598;BME280;22607;49.550;11.940;2022-09-21T07:19:03;97817.53;;;6.34;100.00
36598;BME280;22607;49.550;11.940;2022-09-21T07:21:36;97809.09;;;6.41;100.00
36598;BME280;22607;49.550;11.940;2022-09-21T07:24:03;97815.13;;;6.53;100.00
36598;BME280;22607;49.550;11.940;2022-09-21T07:26:36;97820.06;;;6.68;100.00
36598;BME280;22607;49.550;11.940;2022-09-21T07:29:02;97814.81;;;6.79;100.00
36598;BME280;22607;49.550;11.940;2022-09-21T07:31:29;97805.78;;;7.05;100.00
36598;BME280;22607;49.550;11.940;2022-09-21T07:33:56;97816.22;;;7.38;100.00
36598;BME280;22607;49.550;11.940;2022-09-21T07:36:23;97816.31;;;7.57;100.00
36598;BME280;22607;49.550;11.940;2022-09-21T07:38:50;97813.38;;;7.72;100.00
36598;BME280;22607;49.550;11.940;2022-09-21T07:41:16;97816.56;;;7.75;100.00
36598;BME280;22607;49.550;11.940;2022-09-21T07:43:42;97821.94;;;7.74;100.00
36598;BME280;22607;49.550;11.940;2022-09-21T07:46:10;97818.41;;;7.85;100.00
36598;BME280;22607;49.550;11.940;2022-09-21T07:48:37;97827.88;;;7.55;100.00
36598;BME280;22607;49.550;11.940;2022-09-21T07:51:04;97818.59;;;7.72;100.00
36598;BME280;22607;49.550;11.940;2022-09-21T07:53:35;97825.06;;;7.46;100.00
36598;BME280;22607;49.550;11.940;2022-09-21T07:56:07;97824.28;;;7.56;100.00
36598;BME280;22607;49.550;11.940;2022-09-21T07:58:34;97820.81;;;7.98;100.00
36598;BME280;22607;49.550;11.940;2022-09-21T08:01:20;97826.38;;;7.83;100.00
36598;BME280;22607;49.550;11.940;2022-09-21T08:03:50;97825.66;;;8.12;100.00
36598;BME280;22607;49.550;11.940;2022-09-21T08:06:17;97825.56;;;8.24;100.00
36598;BME280;22607;49.550;11.940;2022-09-21T08:08:44;97823.97;;;8.43;100.00
36598;BME280;22607;49.550;11.940;2022-09-21T08:11:14;97825.22;;;8.48;100.00
36598;BME280;22607;49.550;11.940;2022-09-21T08:13:41;97828.91;;;8.97;100.00
36598;BME280;22607;49.550;11.940;2022-09-21T08:16:07;97822.44;;;9.11;100.00
36598;BME280;22607;49.550;11.940;2022-09-21T08:18:35;97825.44;;;9.26;100.00
36598;BME280;22607;49.550;11.940;2022-09-21T08:21:02;97819.81;;;9.78;100.00
36598;BME280;22607;49.550;11.940;2022-09-21T08:23:28;97823.22;;;9.98;100.00
36598;BME280;22607;49.550;11.940;2022-09-21T08:25:59;97819.41;;;10.49;100.00
36598;BME280;22607;49.550;11.940;2022-09-21T08:28:27;97824.91;;;10.56;100.00
36598;BME280;22607;49.550;11.940;2022-09-21T08:30:53;97821.25;;;10.67;100.00
36598;BME280;22607;49.550;11.940;2022-09-21T08:33:26;97822.94;;;11.49;100.00
36598;BME280;22607;49.550;11.940;2022-09-21T08:35:56;97809.88;;;11.39;100.00
36598;BME280;22607;49.550;11.940;2022-09-21T08:38:22;97815.41;;;11.80;96.73
36598;BME280;22607;49.550;11.940;2022-09-21T08:40:49;97812.03;;;13.24;82.63
36598;BME280;22607;49.550;11.940;2022-09-21T08:46:05;97823.84;;;13.95;82.72
36598;BME280;22607;49.550;11.940;2022-09-21T08:48:35;97817.16;;;14.56;75.30
36598;BME280;22607;49.550;11.940;2022-09-21T08:51:07;97814.41;;;14.73;67.88
36598;BME280;22607;49.550;11.940;2022-09-21T08:53:39;97810.69;;;14.90;71.24
36598;BME280;22607;49.550;11.940;2022-09-21T08:56:10;97818.94;;;14.64;70.04
36598;BME280;22607;49.550;11.940;2022-09-21T08:58:37;97811.13;;;14.79;68.55
36598;BME280;22607;49.550;11.940;2022-09-21T09:09:08;97807.16;;;15.21;66.09
36598;BME280;22607;49.550;11.940;2022-09-21T09:14:11;97806.03;;;15.54;68.40
36598;BME280;22607;49.550;11.940;2022-09-21T09:19:23;97807.69;;;15.70;66.50
36598;BME280;22607;49.550;11.940;2022-09-21T09:21:55;97797.88;;;15.94;65.16
36598;BME280;22607;49.550;11.940;2022-09-21T09:24:31;97795.13;;;16.03;67.86
36598;BME280;22607;49.550;11.940;2022-09-21T09:27:34;97800.78;;;15.69;67.58
36598;BME280;22607;49.550;11.940;2022-09-21T09:32:27;97791.03;;;16.52;65.48
36598;BME280;22607;49.550;11.940;2022-09-21T09:34:58;97786.41;;;16.98;64.90
36598;BME280;22607;49.550;11.940;2022-09-21T09:37:27;97781.78;;;16.63;60.95
36598;BME280;22607;49.550;11.940;2022-09-21T09:39:56;97786.53;;;16.31;62.14
36598;BME280;22607;49.550;11.940;2022-09-21T09:50:29;97786.25;;;15.80;61.93
36598;BME280;22607;49.550;11.940;2022-09-21T09:53:02;97782.34;;;16.21;62.24
36598;BME280;22607;49.550;11.940;2022-09-21T09:55:40;97780.84;;;16.34;62.46
36598;BME280;22607;49.550;11.940;2022-09-21T10:00:42;97768.78;;;16.68;60.03
36598;BME280;22607;49.550;11.940;2022-09-21T10:03:17;97763.72;;;16.73;60.32
36598;BME280;22607;49.550;11.940;2022-09-21T10:05:44;97761.19;;;16.87;60.29
36598;BME280;22607;49.550;11.940;2022-09-21T10:10:52;97754.69;;;16.46;59.64
36598;BME280;22607;49.550;11.940;2022-09-21T10:16:21;97758.84;;;16.99;57.44
36598;BME280;22607;49.550;11.940;2022-09-21T10:18:52;97750.63;;;17.37;54.15
36598;BME280;22607;49.550;11.940;2022-09-21T10:21:22;97756.44;;;16.38;55.76
36598;BME280;22607;49.550;11.940;2022-09-21T10:24:00;97751.59;;;16.86;58.49
36598;BME280;22607;49.550;11.940;2022-09-21T10:26:35;97754.69;;;17.33;60.35
36598;BME280;22607;49.550;11.940;2022-09-21T10:34:27;97738.94;;;17.67;51.24
36598;BME280;22607;49.550;11.940;2022-09-21T10:36:56;97745.91;;;17.68;53.65
36598;BME280;22607;49.550;11.940;2022-09-21T10:39:24;97731.94;;;18.50;51.35
36598;BME280;22607;49.550;11.940;2022-09-21T10:44:19;97736.13;;;17.11;52.32
36598;BME280;22607;49.550;11.940;2022-09-21T10:46:47;97741.47;;;16.96;54.58
36598;BME280;22607;49.550;11.940;2022-09-21T10:49:25;97735.44;;;16.59;53.96
36598;BME280;22607;49.550;11.940;2022-09-21T10:51:56;97734.09;;;16.11;55.04
36598;BME280;22607;49.550;11.940;2022-09-21T10:54:24;97743.97;;;15.72;58.13
36598;BME280;22607;49.550;11.940;2022-09-21T10:56:52;97746.72;;;15.48;61.81
36598;BME280;22607;49.550;11.940;2022-09-21T11:01:49;97759.56;;;14.98;70.20
36598;BME280;22607;49.550;11.940;2022-09-21T11:04:18;97748.00;;;15.14;67.99
36598;BME280;22607;49.550;11.940;2022-09-21T11:06:49;97755.81;;;14.92;69.16
36598;BME280;22607;49.550;11.940;2022-09-21T11:09:28;97757.84;;;14.82;68.81
36598;BME280;22607;49.550;11.940;2022-09-21T11:12:02;97754.59;;;14.72;74.21
36598;BME280;22607;49.550;11.940;2022-09-21T11:17:08;97742.81;;;15.06;76.60
36598;BME280;22607;49.550;11.940;2022-09-21T11:19:41;97743.28;;;15.09;72.82
36598;BME280;22607;49.550;11.940;2022-09-21T11:22:23;97733.00;;;16.20;57.52
36598;BME280;22607;49.550;11.940;2022-09-21T11:25:01;97739.03;;;16.51;50.92
36598;BME280;22607;49.550;11.940;2022-09-21T11:27:33;97735.94;;;17.13;52.18
36598;BME280;22607;49.550;11.940;2022-09-21T11:30:03;97737.38;;;16.93;50.08
36598;BME280;22607;49.550;11.940;2022-09-21T11:38:02;97718.97;;;17.36;48.28
36598;BME280;22607;49.550;11.940;2022-09-21T11:53:36;97708.56;;;17.12;43.85
36598;BME280;22607;49.550;11.940;2022-09-21T11:56:10;97708.91;;;17.02;45.78
36598;BME280;22607;49.550;11.940;2022-09-21T12:01:17;97693.16;;;17.29;42.89
36598;BME280;22607;49.550;11.940;2022-09-21T12:19:21;97687.25;;;17.27;42.84
36598;BME280;22607;49.550;11.940;2022-09-21T12:21:54;97676.94;;;17.46;43.06
36598;BME280;22607;49.550;11.940;2022-09-21T12:24:26;97675.50;;;17.92;41.34
36598;BME280;22607;49.550;11.940;2022-09-21T12:27:02;97675.22;;;17.74;41.36
36598;BME280;22607;49.550;11.940;2022-09-21T12:29:34;97673.94;;;17.56;44.11
36598;BME280;22607;49.550;11.940;2022-09-21T12:32:08;97688.66;;;17.23;46.58
36598;BME280;22607;49.550;11.940;2022-09-21T12:34:43;97685.91;;;17.10;46.06
36598;BME280;22607;49.550;11.940;2022-09-21T12:37:18;97688.75;;;17.08;47.28
36598;BME280;22607;49.550;11.940;2022-09-21T12:42:22;97689.47;;;16.73;47.05
36598;BME280;22607;49.550;11.940;2022-09-21T12:44:53;97684.91;;;16.89;48.72
36598;BME280;22607;49.550;11.940;2022-09-21T12:47:44;97681.97;;;16.55;48.41
36598;BME280;22607;49.550;11.940;2022-09-21T12:51:00;97682.72;;;16.49;49.09
36598;BME280;22607;49.550;11.940;2022-09-21T12:52:59;97686.50;;;16.61;49.85
36598;BME280;22607;49.550;11.940;2022-09-21T13:03:42;97681.63;;;16.21;51.83
36598;BME280;22607;49.550;11.940;2022-09-21T13:08:45;97679.03;;;16.06;51.78
36598;BME280;22607;49.550;11.940;2022-09-21T13:11:13;97677.53;;;16.19;50.37
36598;BME280;22607;49.550;11.940;2022-09-21T13:13:50;97675.81;;;16.54;48.23
36598;BME280;22607;49.550;11.940;2022-09-21T13:16:22;97674.31;;;16.67;46.21
36598;BME280;22607;49.550;11.940;2022-09-21T13:18:57;97664.78;;;16.29;43.24
36598;BME280;22607;49.550;11.940;2022-09-21T13:21:26;97672.13;;;16.49;44.48
36598;BME280;22607;49.550;11.940;2022-09-21T13:23:59;97667.06;;;16.32;43.98
36598;BME280;22607;49.550;11.940;2022-09-21T13:26:28;97667.63;;;16.49;44.83
36598;BME280;22607;49.550;11.940;2022-09-21T13:36:42;97660.25;;;16.23;45.12
36598;BME280;22607;49.550;11.940;2022-09-21T13:39:13;97657.47;;;15.94;48.85
36598;BME280;22607;49.550;11.940;2022-09-21T13:41:40;97655.56;;;15.88;47.08
36598;BME280;22607;49.550;11.940;2022-09-21T13:47:00;97650.03;;;15.68;48.30
36598;BME280;22607;49.550;11.940;2022-09-21T13:49:29;97650.06;;;15.90;47.58
36598;BME280;22607;49.550;11.940;2022-09-21T13:54:33;97638.94;;;16.60;45.86
36598;BME280;22607;49.550;11.940;2022-09-21T13:57:17;97649.13;;;16.56;47.24
36598;BME280;22607;49.550;11.940;2022-09-21T13:59:47;97642.38;;;16.75;47.53
36598;BME280;22607;49.550;11.940;2022-09-21T14:02:30;97637.72;;;16.84;45.82
36598;BME280;22607;49.550;11.940;2022-09-21T14:05:08;97636.41;;;17.02;44.59
36598;BME280;22607;49.550;11.940;2022-09-21T14:07:44;97636.88;;;16.77;46.94
36598;BME280;22607;49.550;11.940;2022-09-21T14:10:15;97638.56;;;16.63;45.88
36598;BME280;22607;49.550;11.940;2022-09-21T14:12:46;97650.16;;;16.55;46.15
36598;BME280;22607;49.550;11.940;2022-09-21T14:17:43;97636.94;;;16.40;47.76
36598;BME280;22607;49.550;11.940;2022-09-21T14:20:26;97629.59;;;16.64;47.12
36598;BME280;22607;49.550;11.940;2022-09-21T14:25:52;97637.00;;;16.47;44.70
36598;BME280;22607;49.550;11.940;2022-09-21T14:28:34;97633.66;;;16.16;45.31
36598;BME280;22607;49.550;11.940;2022-09-21T14:31:05;97632.66;;;16.17;44.35
36598;BME280;22607;49.550;11.940;2022-09-21T14:36:13;97629.53;;;16.29;45.36
36598;BME280;22607;49.550;11.940;2022-09-21T14:38:46;97635.81;;;16.06;47.58
36598;BME280;22607;49.550;11.940;2022-09-21T14:41:21;97625.97;;;16.65;47.42
36598;BME280;22607;49.550;11.940;2022-09-21T14:43:51;97624.47;;;16.84;45.88
36598;BME280;22607;49.550;11.940;2022-09-21T15:15:41;97604.22;;;16.76;42.72
36598;BME280;22607;49.550;11.940;2022-09-21T15:18:16;97591.28;;;16.95;43.75
36598;BME280;22607;49.550;11.940;2022-09-21T15:23:38;97589.50;;;17.02;42.25
36598;BME280;22607;49.550;11.940;2022-09-21T15:26:12;97601.66;;;16.90;43.19
36598;BME280;22607;49.550;11.940;2022-09-21T15:28:42;97593.50;;;16.63;41.91
36598;BME280;22607;49.550;11.940;2022-09-21T15:31:37;97593.94;;;16.66;43.52
36598;BME280;22607;49.550;11.940;2022-09-21T15:34:04;97594.38;;;16.70;43.16
36598;BME280;22607;49.550;11.940;2022-09-21T15:36:35;97589.81;;;16.64;44.12
36598;BME280;22607;49.550;11.940;2022-09-21T15:39:03;97595.97;;;16.43;42.47
36598;BME280;22607;49.550;11.940;2022-09-21T15:41:42;97589.47;;;16.45;44.69
36598;BME280;22607;49.550;11.940;2022-09-21T15:46:36;97594.44;;;16.05;47.71
36598;BME280;22607;49.550;11.940;2022-09-21T15:49:04;97594.44;;;16.05;47.95
36598;BME280;22607;49.550;11.940;2022-09-21T15:51:33;97589.25;;;15.81;49.45
36598;BME280;22607;49.550;11.940;2022-09-21T15:56:41;97589.78;;;15.70;51.15
36598;BME280;22607;49.550;11.940;2022-09-21T15:59:11;97591.31;;;15.64;50.69
36598;BME280;22607;49.550;11.940;2022-09-21T16:01:42;97595.78;;;15.64;51.62
36598;BME280;22607;49.550;11.940;2022-09-21T16:04:15;97595.94;;;15.40;51.63
36598;BME280;22607;49.550;11.940;2022-09-21T16:06:44;97593.66;;;15.37;53.03
36598;BME280;22607;49.550;11.940;2022-09-21T16:09:27;97597.78;;;15.25;53.10
36598;BME280;22607;49.550;11.940;2022-09-21T16:11:56;97602.41;;;15.07;56.72
36598;BME280;22607;49.550;11.940;2022-09-21T16:14:23;97605.53;;;14.96;57.29